• Join FlightAware (Why Join?)
  • Login
  • US Flag 
10:43PM EDT


 

Airport Tracker/Info


-or-


 

Live Flight TrackerFlight Track Log ✈ EGF3985 ✈ 24-Apr-2013 ✈ KJFK - KCVG

Flight Track Log - Related Links

Times and Time Zones

All times are in EDT time to prevent confusion due to time zone crossing. See the EGF3985 flight status page for this flight to view local times or setup timezone preferences in your user account.

Time Position Orientation Groundspeed Altitude Reporting Facility
EDT Latitude Longitude Course Direction KTS MPH feet Rate Location/Type
04:51PM 40.6000 -73.8000 232° Southwest 185 213 1,900  Level New York TRACON
04:52PM 40.5500 -73.7833 166° South 235 270 4,400 2,520 Climbing New York TRACON
04:53PM 40.4674 -74.0485 237° Southwest  Level FlightAware Approximate
04:53PM 40.4833 -73.7500 159° South 236 272 7,000  Level New York TRACON
04:54PM 40.4071 -74.1394 229° Southwest  Level FlightAware Approximate
04:54PM 40.4500 -73.8167 237° Southwest 237 273 9,200  Level New York TRACON
04:55PM 40.3479 -74.2314 232° Southwest  Level FlightAware Approximate
04:55PM 40.4167 -73.9167 246° West 273 314 10,600  Level New York TRACON
04:56PM 40.2911 -74.3261 232° Southwest  Level FlightAware Approximate
04:57PM 40.3367 -74.1364 245° Southwest 333 383 12,300  Level New York Center
04:58PM 40.3025 -74.2353 246° West 339 390 13,600 1,380 Climbing New York Center
04:59PM 40.2614 -74.3558 246° West 339 390 15,200 1,440 Climbing New York Center
05:00PM 40.2497 -74.4611 262° West 326 375 16,600 1,440 Climbing New York Center
05:01PM 40.2356 -74.5800 261° West 326 375 18,100 1,560 Climbing New York Center
05:02PM 40.2228 -74.7153 263° West 342 394 19,800 1,500 Climbing New York Center
05:03PM 40.2081 -74.8367 261° West 348 400 21,200 1,260 Climbing New York Center
05:04PM 40.2000 -74.9478 265° West 348 400 22,400 1,080 Climbing New York Center
05:05PM 40.1892 -75.0775 264° West 353 406 23,400 960 Climbing New York Center
05:06PM 40.1739 -75.2069 261° West 359 413 24,400 960 Climbing New York Center
05:07PM 40.1625 -75.3419 264° West 371 427 25,400 960 Climbing New York Center
05:08PM 40.1469 -75.4742 261° West 371 427 26,400 960 Climbing New York Center
05:09PM 40.1311 -75.6061 261° West 371 427 27,400 780 Climbing New York Center
05:10PM 40.1172 -75.7381 262° West 371 427 28,000 240 Climbing New York Center
05:11PM 40.1031 -75.8756 262° West 371 427 28,000  Level New York Center
05:12PM 40.0883 -76.0211 263° West 384 442 28,000  Level New York Center
05:13PM 40.0694 -76.1661 260° West 400 460 28,000  Level New York Center
05:14PM 40.0500 -76.3111 260° West 411 473 28,000  Level New York Center
05:15PM 40.0328 -76.4533 261° West 405 466 28,000  Level New York Center
05:16PM 39.9850 -76.5822 244° Southwest 400 460 28,000  Level New York Center
05:17PM 39.9286 -76.7075 240° Southwest 400 460 28,000  Level New York Center
05:18PM 39.8683 -76.8297 237° Southwest 400 460 28,000  Level New York Center
05:19PM 39.8314 -76.9047 237° Southwest 409 471 28,000  Level Washington Center
05:20PM 39.7739 -77.0306 239° Southwest 409 471 28,000  Level Washington Center
05:21PM 39.7139 -77.1586 239° Southwest 409 471 28,000  Level Washington Center
05:22PM 39.6558 -77.2842 239° Southwest 409 471 28,000  Level Washington Center
05:23PM 39.5958 -77.4067 238° Southwest 409 471 28,000  Level Washington Center
05:24PM 39.5378 -77.5264 238° Southwest 404 465 28,000  Level Washington Center
05:25PM 39.4817 -77.6458 239° Southwest 404 465 28,000  Level Washington Center
05:26PM 39.4211 -77.7703 238° Southwest 404 465 28,000  Level Washington Center
05:27PM 39.3667 -77.8922 240° Southwest 404 465 28,000  Level Washington Center
05:28PM 39.3161 -78.0219 243° Southwest 399 459 28,000  Level Washington Center
05:29PM 39.2656 -78.1492 243° Southwest 399 459 28,000  Level Washington Center
05:30PM 39.2150 -78.2733 242° Southwest 399 459 28,000  Level Washington Center
05:31PM 39.1708 -78.3867 243° Southwest 405 466 28,000  Level Washington Center
05:32PM 39.1219 -78.5106 243° Southwest 400 460 28,000  Level Washington Center
05:33PM 39.0894 -78.6403 252° West 395 455 28,000  Level Washington Center
05:34PM 39.0672 -78.7758 258° West 390 449 28,000  Level Washington Center
05:35PM 39.0428 -78.9111 257° West 390 449 28,000  Level Washington Center
05:36PM 39.0181 -79.0436 257° West 390 449 28,000  Level Washington Center
05:37PM 38.9956 -79.1761 258° West 390 449 28,000  Level Washington Center
05:38PM 38.9728 -79.3111 258° West 390 449 28,000  Level Washington Center
05:39PM 38.9497 -79.4406 257° West 390 449 28,000  Level Washington Center
05:40PM 38.9247 -79.5700 256° West 390 449 28,000  Level Washington Center
05:41PM 38.8992 -79.7075 257° West 395 455 28,000  Level Washington Center
05:42PM 38.8756 -79.8475 258° West 390 449 28,000  Level Washington Center
05:43PM 38.8481 -79.9764 255° West 378 435 28,000  Level Washington Center
05:45PM 38.8158 -80.2061 260° West 367 422 28,000  Level Indianapolis Center
05:46PM 38.8139 -80.3403 269° West 376 433 28,000  Level Indianapolis Center
05:47PM 38.8106 -80.4747 268° West 377 434 28,000  Level Indianapolis Center
05:48PM 38.8058 -80.6086 267° West 377 434 28,000  Level Indianapolis Center
05:49PM 38.8025 -80.7431 268° West 379 436 28,000  Level Indianapolis Center
05:50PM 38.7986 -80.8778 268° West 379 436 28,000  Level Indianapolis Center
05:51PM 38.7928 -81.0381 267° West 379 436 28,000  Level Indianapolis Center
05:52PM 38.7878 -81.1703 267° West 373 429 28,000  Level Indianapolis Center
05:53PM 38.7831 -81.3014 267° West 371 427 28,000 -480 Level Indianapolis Center
05:54PM 38.7792 -81.4289 268° West 365 420 27,100 -960 Descending Indianapolis Center
05:55PM 38.7739 -81.5653 267° West 362 417 26,100 -1,020 Descending Indianapolis Center
05:56PM 38.7686 -81.7056 267° West 364 419 25,000 -1,020 Descending Indianapolis Center
05:57PM 38.7631 -81.8297 267° West 356 410 24,100 -540 Descending Indianapolis Center
05:58PM 38.7581 -81.9533 267° West 349 402 24,000 -60 Descending Indianapolis Center
05:59PM 38.7433 -82.0750 261° West 345 397 24,000  Level Indianapolis Center
06:00PM 38.7111 -82.1906 250° West 346 398 24,000  Level Indianapolis Center
06:01PM 38.6731 -82.3314 251° West 350 403 24,000  Level Indianapolis Center
06:02PM 38.6417 -82.4472 251° West 347 399 24,000  Level Indianapolis Center
06:03PM 38.6094 -82.5706 252° West 347 399 24,000 -120 Level Indianapolis Center
06:04PM 38.5783 -82.6864 251° West 346 398 23,800 -540 Descending Indianapolis Center
06:05PM 38.5478 -82.7986 251° West 338 389 22,900 -960 Descending Indianapolis Center
06:06PM 38.5367 -82.9175 263° West 344 396 21,900 -1,020 Descending Indianapolis Center
06:07PM 38.5472 -83.0378 276° West 341 392 20,900 -1,020 Descending Indianapolis Center
06:08PM 38.5592 -83.1756 276° West 336 387 19,800 -1,020 Descending Indianapolis Center
06:09PM 38.5675 -83.2906 275° West 328 377 18,800 -1,020 Descending Indianapolis Center
06:10PM 38.5756 -83.4008 275° West 317 365 17,700 -1,500 Descending Indianapolis Center
06:11PM 38.5819 -83.4883 275° West 257 296 15,800 -1,680 Descending Indianapolis Center
06:12PM 38.5889 -83.5681 276° West 233 268 14,300 -1,560 Descending Indianapolis Center
06:13PM 38.5956 -83.6631 275° West 231 266 12,600 -1,620 Descending Indianapolis Center
06:14PM 38.6019 -83.7450 276° West 233 268 11,100 -1,320 Descending Indianapolis Center
06:15PM 38.6083 -83.8358 275° West 251 289 10,000 -540 Descending Indianapolis Center
06:17PM 38.6139 -83.9217 275° West 246 283 10,000  Level Indianapolis Center
06:18PM 38.6578 -84.0089 303° West 272 313 10,000 -480 Level Indianapolis Center
06:19PM 38.6761 -84.0950 285° West 249 287 9,100 -960 Descending Indianapolis Center
06:20PM 38.6897 -84.1758 282° West 235 270 8,100 -540 Descending Indianapolis Center
06:21PM 38.6992 -84.2561 279° West 228 262 8,000 -60 Descending Indianapolis Center
06:22PM 38.7089 -84.3369 279° West 228 262 8,000  Level Indianapolis Center
06:23PM 38.7186 -84.4197 279° West 232 267 8,000  Level Indianapolis Center
06:24PM 38.7314 -84.5153 280° West 232 267 8,000 -300 Level Indianapolis Center
06:25PM 38.7372 -84.5878 276° West 212 244 7,500 -780 Descending Indianapolis Center
06:26PM 38.7628 -84.6328 306° West 187 215 6,500 -960 Descending Indianapolis Center
06:27PM 38.8058 -84.6711 325° Northwest 189 217 5,600 -900 Descending Indianapolis Center
06:28PM 38.8833 -84.6667 North 204 235 4,500 -1,140 Descending Cincinnati TRACON
06:29PM 38.9167 -84.6667 360° North 176 203 3,300 -1,380 Descending Cincinnati TRACON